METAR AND TAF INFORMATION
METAR FOR UTTT
ADDS - METARS form results

(2319 UTC 16 January 2019)
Data provider http://aviationweather.gov/metar/data/
 
METAR text: UTTT 162300Z 06010KT CAVOK 05/M04 Q1019 R08R/CLRD70 NOSIG
Conditions at: UTTT (TASKENT/YUZNI , UZ) observed 2300 UTC 16 January 2019
Temperature: 5.0°C (41°F)
Dewpoint: -4.0°C (25°F) [RH = 52%]
Pressure (altimeter): 30.09 inches Hg (1019.0 mb)
Winds: from the ENE (60 degrees) at 12 MPH (10 knots; 5.1 m/s)
Visibility: 6 or more miles (10+ km)
Ceiling: ceiling and visibility are OK
Clouds: unknown
Weather: no significant weather observed at this time

METAR text: UTTT 162230Z 06010KT 020V080 CAVOK 06/M03 Q1019 R08R/CLRD70 NOSIG
Conditions at: UTTT (TASKENT/YUZNI , UZ) observed 2230 UTC 16 January 2019
Temperature: 6.0°C (43°F)
Dewpoint: -3.0°C (27°F) [RH = 52%]
Pressure (altimeter): 30.09 inches Hg (1019.0 mb)
Winds: from the ENE (60 degrees) at 12 MPH (10 knots; 5.1 m/s)
Visibility: 6 or more miles (10+ km)
Ceiling: ceiling and visibility are OK
Clouds: unknown
Weather: no significant weather observed at this time

Forecast for: UTTT (TASKENT/YUZNI , UZ)
Text: TAF UTTT 162300Z 1700/1724 07010KT 7000 NSC
Forecast period: 0000 UTC 17 January 2019 to 0000 UTC 18 January 2019
Forecast type: FROM: standard forecast or significant change
Winds: from the ENE (70 degrees) at 12 MPH (10 knots; 5.1 m/s)
Visibility: 4 miles (7 km)
Ceiling: unknown
Clouds: missing
Weather: no significant weather forecast for this period
Text: TEMPO 1700/1704 1500 BR
Forecast period: 0000 to 0400 UTC 17 January 2019
Forecast type: TEMPORARY: The following changes expected for less than half the time period
Visibility: 0.93 miles (1.50 km)
Ceiling: unknown
Clouds: missing
Weather: BR  (mist)

 AIRPORT MAP

 RUNWAY INFORMATION
Runway 08L Runway length 13123 ft Runway width 197 ft
Runway elevation 1368 ft Runway displaced threshold 820 ft Runway heading 84
Runway 26R Runway length 13123 ft Runway width 197 ft
Runway elevation 1414 ft Runway displaced threshold 820 ft Runway heading 264
Runway 08R Runway length 12812 ft Runway width 148 ft
Runway elevation 1368 ft Runway displaced threshold 650 ft Runway heading 81
Runway 26L Runway length 12812 ft Runway width 148 ft
Runway elevation 1411 ft Runway displaced threshold 680 ft Runway heading 261

 AIRPORT FREQUENCIES
Type APP Name TASHKENT A Frequency 125.2 MHZ
Type ATIS Name ATIS Frequency 126.8 MHZ
Type CLD Name TASHKENT D Frequency 129.4 MHZ
Type GCA Name TASHKENT K Frequency 119.4 MHZ
Type GND Name TASHKENT G Frequency 121.7 MHZ
Type TWR Name TASHKENT T Frequency 120.4 MHZ

 AIRPORT NEAR NAVIGATION AIDS
Type NDB Name Tashkent Frequency 285 KHZ
Type NDB Name Tashkent Frequency 285 KHZ
Type VOR-DME Name Tashkent Frequency 113200 KHZ
Type NDB Name Tashkent Frequency 340 KHZ



Powered by Virtual Airlines Manager [v2.6.2]